Time;durP1;ratioP1;P1;durP2;ratioP2;P2;SDS_P1;SDS_P2;PMS_P1;PMS_P2;Temp;Humidity;BMP_temperature;BMP_pressure;BME280_temperature;BME280_humidity;BME280_pressure;Samples;Min_cycle;Max_cycle;Signal;HPM_P1;HPM_P2
2023/04/13 00:02:16;;;;;;;;;;;6.00;99.90;;;;;;5076755;28;20043;-82
2023/04/13 00:04:42;;;;;;;3.05;1.92;;;6.00;99.90;;;;;;5076050;28;19922;-84
2023/04/13 00:07:13;;;;;;;4.82;2.03;;;6.30;99.90;;;;;;5076085;28;20428;-83
2023/04/13 00:09:40;;;;;;;4.78;1.90;;;6.00;99.90;;;;;;5075384;28;20061;-83
2023/04/13 00:12:06;;;;;;;2.65;1.77;;;6.00;99.90;;;;;;5093299;28;20043;-83
2023/04/13 00:14:34;;;;;;;4.13;2.20;;;6.00;99.90;;;;;;5109365;28;20042;-83
2023/04/13 00:17:01;;;;;;;4.57;2.13;;;6.10;99.90;;;;;;5058011;28;20040;-83
2023/04/13 00:19:27;;;;;;;3.85;1.70;;;6.10;99.90;;;;;;5076504;28;20039;-83
2023/04/13 00:21:53;;;;;;;6.68;1.88;;;6.10;99.90;;;;;;5092548;28;20156;-83
2023/04/13 00:24:19;;;;;;;4.28;1.95;;;6.20;99.90;;;;;;5076246;28;20066;-83
2023/04/13 00:26:45;;;;;;;5.65;1.80;;;6.20;99.90;;;;;;5075995;28;20036;-83
2023/04/13 00:29:11;;;;;;;;;;;6.30;99.90;;;;;;5110350;28;20055;-84
2023/04/13 00:31:38;;;;;;;4.18;2.33;;;6.60;99.90;;;;;;5092731;28;19916;-84
2023/04/13 00:34:04;;;;;;;6.03;2.00;;;6.30;99.90;;;;;;5060196;28;20043;-84
2023/04/13 00:36:30;;;;;;;3.95;1.90;;;6.30;99.90;;;;;;5092819;28;20050;-83
2023/04/13 00:38:57;;;;;;;6.28;2.72;;;6.40;99.90;;;;;;5092693;28;20031;-84
2023/04/13 00:41:24;;;;;;;4.28;2.03;;;6.40;99.90;;;;;;5092934;28;20199;-83
2023/04/13 00:43:51;;;;;;;3.33;2.03;;;6.40;99.90;;;;;;5076080;28;20425;-84
2023/04/13 00:46:18;;;;;;;;;;;6.50;99.90;;;;;;5109552;28;20131;-83
2023/04/13 00:48:44;;;;;;;6.60;2.33;;;6.40;99.90;;;;;;5109627;28;19974;-83
2023/04/13 00:51:12;;;;;;;3.63;2.25;;;6.40;99.90;;;;;;5075638;28;20116;-83
2023/04/13 00:53:39;;;;;;;3.67;2.08;;;6.30;99.90;;;;;;5092713;28;20042;-83
2023/04/13 00:56:05;;;;;;;5.18;2.38;;;6.40;99.90;;;;;;5092418;28;20047;-83
2023/04/13 00:58:31;;;;;;;;;;;6.40;99.90;;;;;;5074572;28;20071;-83
2023/04/13 01:00:57;;;;;;;4.35;2.78;;;;;;;;;;5092189;28;19967;-83
2023/04/13 01:03:24;;;;;;;4.07;2.67;;;6.40;99.90;;;;;;5092509;28;20036;-82
2023/04/13 01:06:09;;;;;;;4.40;2.70;;;6.40;99.90;;;;;;5075768;28;20024;-82
2023/04/13 01:08:45;;;;;;;3.70;2.33;;;6.40;99.90;;;;;;5110891;28;20032;-82
2023/04/13 01:11:26;;;;;;;5.72;3.40;;;6.40;99.90;;;;;;5095996;28;20130;-82
2023/04/13 01:14:29;;;;;;;9.43;3.85;;;6.40;99.90;;;;;;5111756;28;20036;-81
2023/04/13 01:17:06;;;;;;;6.15;3.20;;;6.40;99.90;;;;;;5095008;28;20063;-81
2023/04/13 01:19:56;;;;;;;3.78;2.72;;;6.60;99.90;;;;;;5112836;28;20036;-81
2023/04/13 01:22:27;;;;;;;6.43;3.30;;;6.50;99.90;;;;;;5112643;28;20187;-80
2023/04/13 01:25:09;;;;;;;4.13;3.28;;;6.50;99.90;;;;;;5110143;28;20115;-80
2023/04/13 01:27:54;;;;;;;7.03;3.85;;;6.30;99.90;;;;;;5112677;28;20628;-80
2023/04/13 01:30:22;;;;;;;5.57;2.88;;;6.30;99.90;;;;;;5110564;28;20031;-80
2023/04/13 01:32:50;;;;;;;4.80;2.65;;;6.20;99.90;;;;;;5095338;28;20073;-80
2023/04/13 01:35:18;;;;;;;7.20;3.70;;;6.10;99.90;;;;;;5095634;28;20126;-80
2023/04/13 01:37:45;;;;;;;4.30;2.80;;;6.10;99.90;;;;;;5095111;28;20058;-81
2023/04/13 01:40:12;;;;;;;6.93;2.67;;;6.10;99.90;;;;;;5095319;28;20088;-81
2023/04/13 01:42:38;;;;;;;;;;;6.10;99.90;;;;;;5112713;28;20035;-81
2023/04/13 01:45:09;;;;;;;4.22;2.28;;;6.10;99.90;;;;;;5095360;28;20287;-81
2023/04/13 01:47:37;;;;;;;4.25;2.50;;;6.10;99.90;;;;;;5095129;28;20159;-81
2023/04/13 01:50:12;;;;;;;3.17;2.20;;;6.10;99.90;;;;;;5111568;28;20039;-81
2023/04/13 01:52:40;;;;;;;3.35;2.10;;;6.00;99.90;;;;;;5092961;28;20051;-81
2023/04/13 01:55:06;;;;;;;3.42;1.90;;;6.00;99.90;;;;;;5111943;28;20112;-81
2023/04/13 01:57:34;;;;;;;;;;;6.00;99.90;;;;;;5112437;28;20035;-81
2023/04/13 02:00:12;;;;;;;3.40;1.98;;;6.00;99.90;;;;;;5094687;28;19922;-81
2023/04/13 02:02:37;;;;;;;4.40;2.47;;;6.00;99.90;;;;;;5111724;28;20032;-81
2023/04/13 02:05:03;;;;;;;4.07;2.28;;;6.00;99.90;;;;;;5077767;28;20127;-81
2023/04/13 02:07:29;;;;;;;3.92;2.20;;;6.00;99.90;;;;;;5094894;28;20043;-81
2023/04/13 02:09:54;;;;;;;5.60;2.00;;;6.00;99.90;;;;;;5111851;28;20140;-81
2023/04/13 02:12:20;;;;;;;2.78;1.77;;;6.30;99.90;;;;;;5111668;28;20078;-81
2023/04/13 02:14:48;;;;;;;5.33;2.20;;;6.20;99.90;;;;;;5111042;28;20040;-82
2023/04/13 02:17:14;;;;;;;8.20;2.00;;;6.00;99.90;;;;;;5110962;28;20320;-82
2023/04/13 02:19:40;;;;;;;3.57;1.97;;;6.00;99.90;;;;;;5076673;28;20085;-82
2023/04/13 02:22:06;;;;;;;2.67;1.70;;;6.00;99.90;;;;;;5059571;28;20294;-80
2023/04/13 02:24:32;;;;;;;5.47;2.15;;;6.00;99.90;;;;;;5094131;28;20047;-80
2023/04/13 02:26:57;;;;;;;3.47;1.73;;;6.10;99.90;;;;;;5092025;28;20437;-81
2023/04/13 02:29:23;;;;;;;4.83;2.17;;;6.00;99.90;;;;;;5077301;28;20204;-80
2023/04/13 02:31:49;;;;;;;3.65;2.10;;;6.00;99.90;;;;;;5077059;28;20805;-80
2023/04/13 02:34:15;;;;;;;6.33;2.00;;;6.00;99.90;;;;;;5094140;28;20499;-80
2023/04/13 02:36:42;;;;;;;3.07;2.00;;;6.00;99.90;;;;;;5111395;28;20277;-80
2023/04/13 02:39:07;;;;;;;5.93;1.92;;;6.00;99.90;;;;;;5093929;28;20366;-80
2023/04/13 02:41:33;;;;;;;2.67;1.75;;;6.10;99.90;;;;;;5093931;28;20067;-80
2023/04/13 02:43:59;;;;;;;2.58;1.67;;;6.00;99.90;;;;;;5093578;28;20118;-81
2023/04/13 02:46:25;;;;;;;3.13;1.70;;;6.10;99.90;;;;;;5110667;28;20196;-81
2023/04/13 02:48:50;;;;;;;2.95;1.75;;;6.00;99.90;;;;;;5110900;28;20407;-81
2023/04/13 02:51:16;;;;;;;2.58;1.55;;;6.10;99.90;;;;;;5059582;28;20483;-81
2023/04/13 02:53:42;;;;;;;2.13;1.40;;;6.20;99.90;;;;;;5075950;28;20055;-80
2023/04/13 02:56:08;;;;;;;3.03;1.77;;;6.10;99.90;;;;;;5093970;28;20346;-81
2023/04/13 02:58:34;;;;;;;2.85;1.60;;;5.60;99.90;;;;;;5077901;28;20039;-82
2023/04/13 03:01:00;;;;;;;2.88;1.40;;;6.10;99.90;;;;;;5093699;28;20453;-81
2023/04/13 03:03:25;;;;;;;4.65;1.35;;;6.30;99.90;;;;;;5094030;28;20043;-82
2023/04/13 03:05:51;;;;;;;4.78;1.40;;;7.20;99.90;;;;;;5076655;28;20032;-82
2023/04/13 03:08:17;;;;;;;5.97;1.60;;;6.10;99.90;;;;;;5094036;28;20054;-82
2023/04/13 03:10:43;;;;;;;2.22;1.30;;;6.40;99.90;;;;;;5077373;28;20288;-82
2023/04/13 03:13:09;;;;;;;2.25;1.00;;;6.30;99.90;;;;;;5093508;28;20407;-82
2023/04/13 03:15:35;;;;;;;2.50;1.40;;;6.20;99.90;;;;;;5110986;28;20035;-82
2023/04/13 03:18:02;;;;;;;1.58;1.08;;;6.20;99.90;;;;;;5093826;28;20042;-82
2023/04/13 03:20:28;;;;;;;2.65;1.45;;;6.20;99.90;;;;;;5077582;28;20036;-82
2023/04/13 03:22:55;;;;;;;4.03;1.42;;;6.20;99.90;;;;;;5094011;28;20445;-82
2023/04/13 03:25:20;;;;;;;2.33;1.50;;;6.20;99.90;;;;;;5111107;28;20430;-82
2023/04/13 03:27:46;;;;;;;3.63;1.60;;;6.40;99.90;;;;;;5077123;28;20050;-82
2023/04/13 03:30:12;;;;;;;3.07;1.50;;;6.20;99.90;;;;;;5093042;28;20285;-83
2023/04/13 03:32:38;;;;;;;4.13;1.83;;;6.20;99.90;;;;;;5077038;28;20031;-82
2023/04/13 03:35:04;;;;;;;2.60;1.40;;;6.20;99.90;;;;;;5077133;28;20123;-82
2023/04/13 03:37:32;;;;;;;;;;;6.20;99.90;;;;;;5077886;28;20776;-82
2023/04/13 03:39:58;;;;;;;2.75;1.42;;;6.20;99.90;;;;;;5110492;28;19919;-83
2023/04/13 03:42:23;;;;;;;2.70;1.58;;;6.20;99.90;;;;;;5093643;28;20032;-83
2023/04/13 03:44:49;;;;;;;3.77;1.80;;;6.20;99.90;;;;;;5077081;28;20399;-83
2023/04/13 03:47:15;;;;;;;2.45;1.75;;;6.20;99.90;;;;;;5093482;28;20294;-82
2023/04/13 03:49:41;;;;;;;1.60;1.20;;;6.20;99.90;;;;;;5058453;28;20032;-82
2023/04/13 03:52:06;;;;;;;2.38;1.33;;;6.20;99.90;;;;;;5059661;28;20742;-82
2023/04/13 03:54:32;;;;;;;1.92;1.48;;;6.30;99.90;;;;;;5093450;28;20031;-83
2023/04/13 03:56:59;;;;;;;2.92;1.60;;;6.30;99.90;;;;;;5059586;28;20429;-83
2023/04/13 03:59:25;;;;;;;4.25;1.80;;;6.40;99.90;;;;;;5075475;28;20048;-83
2023/04/13 04:01:51;;;;;;;1.80;1.35;;;6.30;99.90;;;;;;5110159;28;20043;-83
2023/04/13 04:04:16;;;;;;;3.42;1.52;;;6.30;99.90;;;;;;5110088;28;20039;-83
2023/04/13 04:06:42;;;;;;;1.67;1.10;;;6.30;99.90;;;;;;5093110;28;20091;-83
2023/04/13 04:09:09;;;;;;;3.83;1.95;;;6.30;99.90;;;;;;5075969;28;20034;-83
2023/04/13 04:11:34;;;;;;;2.05;1.30;;;6.40;99.90;;;;;;5077079;28;20036;-83
2023/04/13 04:14:00;;;;;;;4.50;1.70;;;6.30;99.90;;;;;;5093548;28;20042;-84
2023/04/13 04:16:26;;;;;;;1.90;1.23;;;6.40;99.90;;;;;;5060192;28;20051;-83
2023/04/13 04:18:51;;;;;;;2.25;1.45;;;6.40;99.90;;;;;;5076920;28;20047;-83
2023/04/13 04:21:20;;;;;;;4.50;1.80;;;7.40;99.90;;;;;;5057819;28;20475;-85
2023/04/13 04:23:46;;;;;;;1.75;1.27;;;6.40;99.90;;;;;;5093747;28;20039;-83
2023/04/13 04:26:13;;;;;;;4.78;1.80;;;6.30;99.90;;;;;;5075176;28;20032;-86
2023/04/13 04:28:39;;;;;;;3.33;1.95;;;6.40;99.90;;;;;;5093414;28;20080;-84
2023/04/13 04:31:09;;;;;;;4.28;2.03;;;6.40;99.90;;;;;;5057180;28;20551;-83
2023/04/13 04:33:38;;;;;;;2.67;1.73;;;6.30;99.90;;;;;;5110341;28;20156;-84
2023/04/13 04:36:09;;;;;;;3.60;1.75;;;6.30;99.90;;;;;;5092519;28;20070;-84
2023/04/13 04:38:35;;;;;;;2.42;1.70;;;6.20;99.90;;;;;;5110281;28;20035;-84
2023/04/13 04:41:01;;;;;;;3.42;1.58;;;6.20;99.90;;;;;;5094796;28;20199;-83
2023/04/13 04:43:29;;;;;;;2.30;1.70;;;6.10;99.90;;;;;;5079970;28;20140;-85
2023/04/13 04:45:58;;;;;;;2.88;1.75;;;6.10;99.90;;;;;;5078191;28;20043;-84
2023/04/13 04:48:30;;;;;;;3.90;1.73;;;6.50;99.90;;;;;;5096661;28;20048;-84
2023/04/13 04:50:56;;;;;;;2.15;1.30;;;6.10;99.90;;;;;;5098386;28;20127;-85
2023/04/13 04:53:22;;;;;;;;;;;6.10;99.90;;;;;;5097224;28;20071;-85
2023/04/13 04:55:48;;;;;;;2.72;1.63;;;6.10;99.90;;;;;;5113861;28;19915;-85
2023/04/13 04:58:15;;;;;;;3.53;1.85;;;6.10;99.90;;;;;;5096202;28;20484;-85
2023/04/13 05:00:41;;;;;;;3.30;1.90;;;6.20;99.90;;;;;;5096622;28;20035;-85
2023/04/13 05:03:07;;;;;;;4.50;2.63;;;6.10;99.90;;;;;;5079490;28;20042;-85
2023/04/13 05:05:33;;;;;;;3.50;2.05;;;7.50;99.90;;;;;;5096344;28;20032;-85
2023/04/13 05:08:00;;;;;;;4.28;2.00;;;6.10;99.90;;;;;;5096500;28;20451;-85
2023/04/13 05:10:28;;;;;;;5.53;2.22;;;6.10;99.90;;;;;;5095894;28;20264;-85
2023/04/13 05:12:55;;;;;;;3.88;2.10;;;6.10;99.90;;;;;;5079777;28;20031;-85
2023/04/13 05:15:21;;;;;;;6.07;3.03;;;6.10;99.90;;;;;;5060837;28;20153;-85
2023/04/13 05:17:49;;;;;;;3.88;2.38;;;6.10;99.90;;;;;;5079313;28;20073;-85
2023/04/13 05:20:16;;;;;;;5.28;2.88;;;6.60;99.90;;;;;;5112578;28;20036;-85
2023/04/13 05:22:42;;;;;;;5.93;3.10;;;6.20;99.90;;;;;;5089510;28;20123;-84
2023/04/13 05:25:08;;;;;;;4.43;2.42;;;6.10;99.90;;;;;;5095437;28;20511;-85
2023/04/13 05:27:34;;;;;;;3.47;2.10;;;6.20;99.90;;;;;;5079342;28;20042;-84
2023/04/13 05:30:00;;;;;;;5.72;3.38;;;6.20;99.90;;;;;;5095982;28;20069;-84
2023/04/13 05:32:25;;;;;;;5.57;2.70;;;6.20;99.90;;;;;;5078710;28;20528;-85
2023/04/13 05:34:51;;;;;;;7.53;2.80;;;6.30;99.90;;;;;;5060680;28;20036;-85
2023/04/13 05:37:17;;;;;;;7.25;3.00;;;6.40;99.90;;;;;;5096177;28;20049;-85
2023/04/13 05:39:44;;;;;;;8.18;3.20;;;6.40;99.90;;;;;;5089731;28;20034;-84
2023/04/13 05:42:10;;;;;;;5.55;2.35;;;6.40;99.90;;;;;;5061224;28;20044;-85
2023/04/13 05:44:36;;;;;;;;;;;6.50;99.90;;;;;;5096411;28;20098;-83
2023/04/13 05:47:02;;;;;;;6.22;3.22;;;6.50;99.90;;;;;;5095444;28;19970;-83
2023/04/13 05:49:28;;;;;;;3.63;2.20;;;6.50;99.90;;;;;;5095687;28;20097;-84
2023/04/13 05:51:53;;;;;;;5.68;2.40;;;6.50;99.90;;;;;;5095336;28;20047;-84
2023/04/13 05:54:19;;;;;;;6.13;2.55;;;6.60;99.90;;;;;;5095627;28;20136;-85
2023/04/13 05:56:46;;;;;;;7.25;3.25;;;7.00;99.90;;;;;;5079275;28;20036;-85
2023/04/13 05:59:13;;;;;;;4.32;2.10;;;6.80;99.90;;;;;;5078098;28;20032;-84
2023/04/13 06:01:38;;;;;;;5.85;2.40;;;6.90;99.90;;;;;;5095724;28;20055;-85
2023/04/13 06:04:04;;;;;;;5.57;2.60;;;7.00;99.90;;;;;;5095765;28;20403;-85
2023/04/13 06:06:31;;;;;;;7.13;2.50;;;7.10;99.90;;;;;;5111980;28;20035;-84
2023/04/13 06:08:56;;;;;;;;;;;7.20;99.90;;;;;;5112930;28;20036;-85
2023/04/13 06:11:23;;;;;;;5.28;1.95;;;7.30;99.90;;;;;;5111579;28;20269;-85
2023/04/13 06:13:50;;;;;;;8.15;1.90;;;7.30;99.90;;;;;;5095571;28;20424;-84
2023/04/13 06:16:16;;;;;;;3.58;1.90;;;7.40;99.90;;;;;;5077865;28;20126;-84
2023/04/13 06:18:42;;;;;;;;;;;7.30;99.90;;;;;;5095912;28;20031;-84
2023/04/13 06:21:08;;;;;;;6.05;2.40;;;7.40;99.90;;;;;;5095126;28;19973;-84
2023/04/13 06:23:33;;;;;;;4.85;2.20;;;7.50;99.90;;;;;;5078178;28;20054;-83
2023/04/13 06:25:59;;;;;;;7.95;3.35;;;7.30;99.90;;;;;;5112241;28;20032;-83
2023/04/13 06:28:28;;;;;;;3.72;1.80;;;7.20;99.90;;;;;;5111638;28;20403;-83
2023/04/13 06:30:54;;;;;;;9.48;2.58;;;7.20;99.90;;;;;;5095223;28;20050;-83
2023/04/13 06:33:21;;;;;;;6.88;2.45;;;7.20;99.90;;;;;;5111390;28;20043;-84
2023/04/13 06:35:48;;;;;;;2.35;1.67;;;7.20;99.90;;;;;;5059396;28;20124;-83
2023/04/13 06:38:14;;;;;;;3.22;1.30;;;7.30;99.90;;;;;;5061148;28;20040;-83
2023/04/13 06:40:40;;;;;;;2.38;1.55;;;7.20;99.90;;;;;;5078018;28;20039;-83
2023/04/13 06:43:06;;;;;;;3.40;1.83;;;7.30;99.90;;;;;;5094872;28;20040;-83
2023/04/13 06:45:32;;;;;;;7.18;2.53;;;7.20;99.90;;;;;;5111247;28;20548;-83
2023/04/13 06:47:59;;;;;;;5.85;2.65;;;7.10;99.90;;;;;;5094502;28;20047;-84
2023/04/13 06:50:25;;;;;;;5.75;1.52;;;7.20;99.90;;;;;;5094498;28;20032;-84
2023/04/13 06:52:50;;;;;;;3.85;1.98;;;7.10;99.90;;;;;;5077965;28;20028;-84
2023/04/13 06:55:16;;;;;;;4.63;1.88;;;7.10;99.90;;;;;;5093890;28;20043;-83
2023/04/13 06:57:43;;;;;;;5.78;2.42;;;7.10;99.90;;;;;;5111236;28;20032;-83
2023/04/13 07:00:13;;;;;;;5.78;2.72;;;7.00;99.90;;;;;;5094395;28;20611;-83
2023/04/13 07:02:40;;;;;;;6.43;2.70;;;7.00;99.90;;;;;;5111334;28;20495;-84
2023/04/13 07:05:06;;;;;;;5.03;2.47;;;7.00;99.90;;;;;;5110196;28;20038;-84
2023/04/13 07:07:32;;;;;;;4.18;2.53;;;7.10;99.90;;;;;;5060620;28;20673;-83
2023/04/13 07:09:58;;;;;;;;;;;7.00;99.90;;;;;;5094962;28;20039;-83
2023/04/13 07:12:24;;;;;;;6.55;2.90;;;7.10;99.90;;;;;;5093763;28;19915;-84
2023/04/13 07:14:49;;;;;;;8.55;2.67;;;7.20;99.90;;;;;;5094313;28;20112;-83
2023/04/13 07:17:15;;;;;;;7.05;3.00;;;7.30;99.90;;;;;;5077669;28;20459;-83
2023/04/13 07:19:46;;;;;;;10.02;3.55;;;7.30;99.90;;;;;;5094119;28;20088;-83
2023/04/13 07:22:12;;;;;;;11.52;3.63;;;7.30;99.90;;;;;;5075007;28;20051;-83
2023/04/13 07:24:38;;;;;;;5.35;2.67;;;7.30;99.90;;;;;;5110915;28;20035;-83
2023/04/13 07:27:04;;;;;;;7.80;2.53;;;7.40;99.90;;;;;;5077517;28;20040;-84
2023/04/13 07:29:30;;;;;;;8.75;2.63;;;7.40;99.90;;;;;;5110221;28;20054;-84
2023/04/13 07:32:01;;;;;;;6.20;2.90;;;7.30;99.90;;;;;;5094004;28;20036;-84
2023/04/13 07:34:28;;;;;;;8.32;3.25;;;7.40;99.90;;;;;;5093135;28;20044;-84
2023/04/13 07:36:54;;;;;;;5.47;2.90;;;7.40;99.90;;;;;;5110678;28;20047;-84
2023/04/13 07:39:20;;;;;;;9.30;3.78;;;7.30;99.90;;;;;;5093641;28;20051;-84
2023/04/13 07:41:46;;;;;;;5.30;2.70;;;7.30;99.90;;;;;;5093585;28;20050;-84
2023/04/13 07:44:13;;;;;;;5.57;2.40;;;7.40;99.90;;;;;;5093519;28;20040;-84
2023/04/13 07:46:39;;;;;;;9.13;3.55;;;7.50;99.90;;;;;;5093405;28;20051;-84
2023/04/13 07:49:05;;;;;;;9.32;2.80;;;7.70;99.90;;;;;;5093716;28;20434;-84
2023/04/13 07:51:33;;;;;;;9.75;2.55;;;7.80;99.90;;;;;;5090865;28;20047;-84
2023/04/13 07:53:59;;;;;;;6.60;2.25;;;8.00;99.90;;;;;;5061040;28;20488;-84
2023/04/13 07:56:25;;;;;;;8.18;2.33;;;8.10;99.90;;;;;;5093720;28;20046;-83
2023/04/13 07:58:51;;;;;;;10.73;2.25;;;8.40;99.90;;;;;;5093867;28;20074;-83
2023/04/13 08:01:17;;;;;;;2.53;1.48;;;8.80;99.90;;;;;;5075979;28;20068;-83
2023/04/13 08:03:43;;;;;;;3.08;1.80;;;9.10;99.90;;;;;;5093581;28;20027;-83
2023/04/13 08:06:10;;;;;;;4.90;1.92;;;9.30;99.90;;;;;;5093559;28;20395;-83
2023/04/13 08:08:35;;;;;;;3.70;1.58;;;9.20;99.90;;;;;;5093002;28;20110;-83
2023/04/13 08:11:01;;;;;;;6.78;1.88;;;9.20;99.90;;;;;;5110528;28;20452;-83
2023/04/13 08:13:28;;;;;;;4.78;1.38;;;9.00;99.90;;;;;;5093110;28;20032;-83
2023/04/13 08:15:56;;;;;;;;;;;9.00;99.90;;;;;;5078675;28;20039;-84
2023/04/13 08:18:23;;;;;;;1.83;1.35;;;8.90;99.90;;;;;;5113984;28;19916;-83
2023/04/13 08:20:49;;;;;;;2.45;1.38;;;8.70;99.90;;;;;;5080132;28;20040;-83
2023/04/13 08:23:15;;;;;;;5.53;1.52;;;8.70;99.90;;;;;;5114115;28;20043;-83
2023/04/13 08:25:41;;;;;;;6.18;1.83;;;8.50;99.90;;;;;;5113956;28;20580;-84
2023/04/13 08:28:07;;;;;;;3.38;1.60;;;8.40;99.90;;;;;;5114049;28;20040;-83
2023/04/13 08:30:33;;;;;;;3.72;1.30;;;8.30;99.90;;;;;;5080034;28;20050;-83
2023/04/13 08:32:59;;;;;;;;;;;8.20;99.90;;;;;;5097638;28;20466;-83
2023/04/13 08:35:24;;;;;;;2.65;1.30;;;8.20;99.90;;;;;;5096790;28;20057;-83
2023/04/13 08:37:50;;;;;;;5.63;1.55;;;8.30;99.90;;;;;;5097309;28;20077;-83
2023/04/13 08:40:17;;;;;;;3.13;1.00;;;8.40;99.90;;;;;;5092206;28;20043;-83
2023/04/13 08:42:43;;;;;;;6.32;1.73;;;8.60;99.90;;;;;;5096443;28;20067;-84
2023/04/13 08:45:09;;;;;;;7.47;1.20;;;8.80;99.90;;;;;;5096970;28;20058;-84
2023/04/13 08:47:35;;;;;;;5.03;1.50;;;8.80;99.90;;;;;;5096406;28;20052;-83
2023/04/13 08:50:02;;;;;;;2.97;1.10;;;8.80;99.90;;;;;;5113600;28;20066;-83
2023/04/13 08:52:28;;;;;;;4.07;1.02;;;8.80;99.90;;;;;;5096371;28;20762;-82
2023/04/13 08:54:57;;;;;;;4.13;0.93;;;8.80;99.90;;;;;;5096784;28;20445;-83
2023/04/13 08:57:23;;;;;;;3.15;0.90;;;8.80;99.90;;;;;;5096763;28;20576;-83
2023/04/13 08:59:53;;;;;;;4.72;1.02;;;8.90;99.90;;;;;;5096603;28;20035;-83
2023/04/13 09:02:24;;;;;;;4.32;1.05;;;9.00;99.90;;;;;;5096316;28;20066;-83
2023/04/13 09:04:58;;;;;;;0.70;0.63;;;9.10;99.90;;;;;;5096911;28;20496;-83
2023/04/13 09:07:29;;;;;;;1.95;0.73;;;9.10;99.90;;;;;;5094695;28;20032;-83
2023/04/13 09:09:58;;;;;;;4.78;0.88;;;9.10;99.90;;;;;;5113489;28;20089;-83
2023/04/13 09:12:29;;;;;;;1.42;0.80;;;9.10;99.90;;;;;;5094282;28;20513;-83
2023/04/13 09:14:55;;;;;;;1.63;0.68;;;9.10;99.90;;;;;;5096775;28;20104;-82
2023/04/13 09:17:24;;;;;;;2.00;0.90;;;9.00;99.90;;;;;;5113337;28;20032;-83
2023/04/13 09:19:50;;;;;;;3.03;0.90;;;8.90;99.90;;;;;;5109212;28;20054;-83
2023/04/13 09:22:16;;;;;;;6.55;1.40;;;8.90;99.90;;;;;;5096396;28;20123;-83
2023/04/13 09:24:42;;;;;;;2.25;1.17;;;8.90;99.90;;;;;;5095953;28;20040;-82
2023/04/13 09:27:22;;;;;;;1.55;1.15;;;8.90;99.90;;;;;;5095821;28;20046;-83
2023/04/13 09:29:55;;;;;;;8.85;1.25;;;8.90;99.90;;;;;;5112143;28;20454;-83
2023/04/13 09:32:25;;;;;;;3.33;1.20;;;9.00;99.90;;;;;;5113638;28;20398;-83
2023/04/13 09:35:03;;;;;;;8.00;1.23;;;9.30;99.90;;;;;;5079174;28;20039;-83
2023/04/13 09:37:29;;;;;;;3.47;1.30;;;9.60;99.90;;;;;;5093708;28;20114;-82
2023/04/13 09:39:55;;;;;;;3.53;1.08;;;9.60;99.90;;;;;;5096291;28;20160;-83
2023/04/13 09:42:22;;;;;;;5.60;1.13;;;9.50;99.90;;;;;;5095641;28;20131;-82
2023/04/13 09:44:55;;;;;;;2.53;0.63;;;9.40;99.90;;;;;;5093549;28;20513;-81
2023/04/13 09:47:21;;;;;;;3.67;1.08;;;9.20;99.90;;;;;;5112417;28;20051;-81
2023/04/13 09:49:47;;;;;;;2.05;0.40;;;9.00;99.90;;;;;;5112000;28;20043;-80
2023/04/13 09:52:22;;;;;;;0.70;0.30;;;8.70;99.90;;;;;;5109249;28;20054;-81
2023/04/13 09:54:53;;;;;;;2.60;0.30;;;8.40;99.90;;;;;;5094053;28;20040;-81
2023/04/13 09:57:30;;;;;;;1.00;0.30;;;8.30;99.90;;;;;;5109529;28;20039;-81
2023/04/13 09:59:56;;;;;;;;;;;8.10;99.90;;;;;;5094984;28;20752;-80
2023/04/13 10:02:22;;;;;;;2.45;0.77;;;7.90;99.90;;;;;;5094350;28;19930;-80
2023/04/13 10:04:48;;;;;;;2.22;0.38;;;7.70;99.90;;;;;;5094365;28;20565;-81
2023/04/13 10:07:15;;;;;;;1.30;0.40;;;7.70;99.90;;;;;;5094699;28;20161;-81
2023/04/13 10:09:43;;;;;;;;;;;7.60;99.90;;;;;;5112007;28;20681;-82
2023/04/13 10:12:10;;;;;;;0.47;0.40;;;7.70;99.90;;;;;;5111527;28;20042;-82
2023/04/13 10:14:39;;;;;;;0.30;0.30;;;7.70;99.90;;;;;;5095012;28;20042;-82
2023/04/13 10:17:14;;;;;;;1.25;0.40;;;8.00;99.90;;;;;;5111641;28;20074;-82
2023/04/13 10:19:47;;;;;;;1.83;0.47;;;8.20;99.90;;;;;;5093468;28;20040;-82
2023/04/13 10:22:14;;;;;;;0.47;0.30;;;8.70;99.90;;;;;;5111754;28;20040;-82
2023/04/13 10:24:40;;;;;;;0.30;0.30;;;9.40;99.90;;;;;;5111289;28;20112;-82
2023/04/13 10:27:20;;;;;;;0.82;0.22;;;10.20;99.90;;;;;;5111548;28;20043;-82
2023/04/13 10:29:46;;;;;;;0.40;0.40;;;10.90;99.90;;;;;;5092992;28;20041;-82
2023/04/13 10:32:23;;;;;;;0.85;0.30;;;11.50;99.90;;;;;;5111794;28;20103;-82
2023/04/13 10:34:49;;;;;;;0.63;0.22;;;11.90;99.90;;;;;;5092923;28;20476;-82
2023/04/13 10:37:18;;;;;;;1.70;0.40;;;11.90;99.90;;;;;;5094312;28;20126;-82
2023/04/13 10:39:45;;;;;;;0.30;0.30;;;11.80;99.90;;;;;;5111161;28;20039;-82
2023/04/13 10:42:14;;;;;;;1.08;0.45;;;11.60;99.90;;;;;;5111580;28;20040;-82
2023/04/13 10:44:44;;;;;;;1.17;0.50;;;11.90;99.90;;;;;;5111638;28;20485;-82
2023/04/13 10:47:12;;;;;;;1.58;0.47;;;12.20;99.90;;;;;;5108757;28;20051;-82
2023/04/13 10:49:39;;;;;;;0.45;0.30;;;12.60;99.90;;;;;;5057458;28;20368;-82
2023/04/13 10:52:05;;;;;;;1.27;0.20;;;13.00;99.90;;;;;;5093561;28;20492;-82
2023/04/13 10:54:33;;;;;;;0.85;0.35;;;13.20;99.90;;;;;;5077710;28;20036;-82
2023/04/13 10:57:01;;;;;;;2.20;0.40;;;13.40;99.90;;;;;;5111045;28;20119;-82
2023/04/13 10:59:52;;;;;;;1.35;0.43;;;13.60;99.90;;;;;;5111209;28;20054;-82
2023/04/13 11:02:18;;;;;;;3.45;0.50;;;13.70;99.90;;;;;;5091278;28;20040;-82
2023/04/13 11:04:46;;;;;;;2.83;0.75;;;13.20;99.90;;;;;;5093850;28;20093;-82
2023/04/13 11:07:24;;;;;;;0.93;0.63;;;12.50;99.90;;;;;;5094569;28;20572;-82
2023/04/13 11:09:50;;;;;;;3.15;0.68;;;12.10;99.90;;;;;;5091822;28;20533;-82
2023/04/13 11:12:17;;;;;;;2.05;0.52;;;11.70;99.90;;;;;;5111015;28;20070;-82
2023/04/13 11:14:49;;;;;;;1.27;0.50;;;11.40;99.90;;;;;;5110939;28;20031;-82
2023/04/13 11:17:19;;;;;;;2.05;0.80;;;10.80;99.90;;;;;;5074730;28;20040;-81
2023/04/13 11:19:52;;;;;;;2.25;0.47;;;10.60;99.90;;;;;;5093515;28;20042;-82
2023/04/13 11:22:24;;;;;;;4.75;0.93;;;10.40;99.90;;;;;;5108605;28;20092;-81
2023/04/13 11:24:50;;;;;;;3.38;0.70;;;10.20;99.90;;;;;;5110260;28;20040;-81
2023/04/13 11:27:22;;;;;;;3.05;0.80;;;10.20;99.90;;;;;;5093553;28;20402;-81
2023/04/13 11:30:20;;;;;;;4.82;0.90;;;10.30;99.90;;;;;;5110577;28;20364;-82
2023/04/13 11:32:49;;;;;;;3.42;0.95;;;10.40;99.90;;;;;;5075577;28;20055;-82
2023/04/13 11:35:15;;;;;;;4.25;0.95;;;10.40;99.90;;;;;;5093867;28;20118;-82
2023/04/13 11:37:43;;;;;;;;;;;10.60;99.90;;;;;;5110608;28;20036;-82
2023/04/13 11:40:13;;;;;;;;;;;10.90;99.90;;;;;;5125869;27;19962;-82
2023/04/13 11:42:41;;;;;;;6.70;1.48;;;11.10;99.90;;;;;;5093342;28;19995;-82
2023/04/13 11:45:08;;;;;;;8.45;1.48;;;11.20;99.90;;;;;;5093436;28;20473;-82
2023/04/13 11:47:37;;;;;;;7.53;1.73;;;11.10;99.90;;;;;;5091032;28;20413;-82
2023/04/13 11:50:04;;;;;;;6.63;1.80;;;11.10;99.90;;;;;;5093538;28;20156;-82
2023/04/13 11:52:31;;;;;;;10.63;1.50;;;11.00;99.90;;;;;;5056968;28;20501;-82
2023/04/13 11:54:57;;;;;;;6.65;1.98;;;11.00;99.90;;;;;;5109541;28;20036;-82
2023/04/13 11:57:23;;;;;;;8.20;1.67;;;11.30;99.90;;;;;;5058899;28;20048;-82
2023/04/13 11:59:51;;;;;;;9.27;1.88;;;11.60;99.90;;;;;;5092975;28;20046;-83
2023/04/13 12:02:25;;;;;;;11.27;1.63;;;11.90;99.90;;;;;;5076225;28;20121;-83
2023/04/13 12:04:52;;;;;;;6.88;1.58;;;12.10;99.90;;;;;;5076498;28;20063;-83
2023/04/13 12:07:18;;;;;;;9.38;1.20;;;12.30;99.90;;;;;;5092947;28;20027;-83
2023/04/13 12:09:45;;;;;;;8.18;2.15;;;12.30;99.90;;;;;;5093185;28;20042;-83
2023/04/13 12:12:18;;;;;;;8.68;1.63;;;12.30;99.90;;;;;;5076359;28;20035;-83
2023/04/13 12:14:57;;;;;;;9.63;1.58;;;12.10;99.90;;;;;;5107984;28;20066;-83
2023/04/13 12:17:34;;;;;;;5.95;1.40;;;12.00;99.90;;;;;;5090643;28;20035;-83
2023/04/13 12:20:01;;;;;;;5.95;1.70;;;11.90;99.90;;;;;;5092839;28;20036;-83
2023/04/13 12:22:43;;;;;;;5.55;0.90;;;11.80;99.90;;;;;;5076109;28;20047;-83
2023/04/13 12:25:19;;;;;;;6.22;1.10;;;11.80;99.90;;;;;;5091717;28;20031;-83
2023/04/13 12:27:47;;;;;;;7.15;1.25;;;11.50;99.90;;;;;;5073480;28;20035;-83
2023/04/13 12:30:15;;;;;;;11.50;1.90;;;11.40;99.90;;;;;;5109958;28;20031;-83
2023/04/13 12:32:52;;;;;;;7.25;1.30;;;11.40;99.90;;;;;;5092720;28;20046;-83
2023/04/13 12:35:20;;;;;;;7.40;1.25;;;11.40;99.90;;;;;;5091404;28;20036;-83
2023/04/13 12:37:48;;;;;;;7.97;1.30;;;11.20;99.90;;;;;;5093119;28;20143;-83
2023/04/13 12:40:15;;;;;;;4.45;1.13;;;11.10;99.90;;;;;;5110187;28;20051;-83
2023/04/13 12:42:43;;;;;;;5.20;1.58;;;11.10;99.90;;;;;;5092428;28;20036;-83
2023/04/13 12:45:09;;;;;;;5.72;1.27;;;10.90;99.90;;;;;;5092991;28;20032;-83
2023/04/13 12:47:36;;;;;;;9.10;1.60;;;10.90;99.90;;;;;;5075837;28;20393;-83
2023/04/13 12:50:05;;;;;;;;;;;10.80;99.90;;;;;;5093620;28;20444;-83
2023/04/13 12:52:31;;;;;;;7.70;1.35;;;10.70;99.90;;;;;;5076323;28;20355;-83
2023/04/13 12:55:01;;;;;;;7.30;1.38;;;10.60;99.90;;;;;;5092724;28;20074;-83
2023/04/13 12:57:28;;;;;;;6.38;1.40;;;10.60;99.90;;;;;;5075921;28;20073;-83
2023/04/13 12:59:54;;;;;;;6.85;1.77;;;10.50;99.90;;;;;;5109239;28;20043;-84
2023/04/13 13:02:25;;;;;;;6.88;1.45;;;10.50;99.90;;;;;;5095184;28;20043;-83
2023/04/13 13:04:51;;;;;;;6.05;1.35;;;10.70;99.90;;;;;;5096779;28;20032;-83